createdAt,value
2018-08-04T00:00:38.139Z,95.00
2018-08-04T00:03:06.925Z,94.80
2018-08-04T00:05:35.695Z,95.00
2018-08-04T00:08:04.543Z,95.10
2018-08-04T00:13:01.801Z,95.00
2018-08-04T00:15:30.667Z,95.30
2018-08-04T00:17:59.397Z,95.70
2018-08-04T00:20:28.295Z,96.00
2018-08-04T00:22:57.243Z,96.10
2018-08-04T00:25:26.152Z,96.40
2018-08-04T00:27:54.992Z,96.70
2018-08-04T00:30:23.990Z,97.10
2018-08-04T00:32:52.932Z,97.40
2018-08-04T00:35:21.833Z,97.40
2018-08-04T00:37:50.689Z,97.70
2018-08-04T00:40:19.592Z,97.70
2018-08-04T00:42:48.622Z,97.90
2018-08-04T00:45:17.868Z,98.30
2018-08-04T00:47:47.280Z,98.70
2018-08-04T00:50:16.080Z,98.40
2018-08-04T00:52:44.808Z,98.00
2018-08-04T00:55:13.601Z,97.90
2018-08-04T00:57:42.448Z,98.00
2018-08-04T01:00:11.284Z,97.90
2018-08-04T01:02:40.130Z,98.00
2018-08-04T01:05:08.901Z,98.20
2018-08-04T01:07:37.679Z,98.50
2018-08-04T01:10:10.694Z,98.70
2018-08-04T01:12:43.710Z,98.90
2018-08-04T01:15:16.671Z,98.70
2018-08-04T01:17:51.033Z,99.10
2018-08-04T01:20:23.947Z,99.30
2018-08-04T01:22:57.932Z,99.30
2018-08-04T01:25:30.689Z,99.20
2018-08-04T01:28:03.517Z,99.00
2018-08-04T01:30:37.677Z,99.40
2018-08-04T01:33:11.547Z,99.70
2018-08-04T01:35:46.658Z,99.80
2018-08-04T01:38:19.757Z,99.90
2018-08-04T01:40:54.707Z,99.90
2018-08-04T01:43:28.015Z,99.90
2018-08-04T01:46:02.735Z,99.90
2018-08-04T01:48:36.789Z,99.90
2018-08-04T01:51:10.846Z,99.90
2018-08-04T01:53:44.414Z,99.90
2018-08-04T01:58:53.202Z,99.90
2018-08-04T02:01:26.022Z,99.90
2018-08-04T02:03:59.092Z,99.90
2018-08-04T02:06:32.345Z,99.90
2018-08-04T02:09:06.971Z,99.90
2018-08-04T02:11:39.880Z,99.90
2018-08-04T02:14:13.138Z,99.90
2018-08-04T02:16:45.959Z,99.90
2018-08-04T02:19:18.522Z,99.90
2018-08-04T02:21:52.260Z,99.90
2018-08-04T02:24:22.850Z,99.90
2018-08-04T02:26:54.698Z,99.90
2018-08-04T02:31:57.422Z,99.90
2018-08-04T02:34:31.290Z,99.90
2018-08-04T02:37:00.372Z,99.90
2018-08-04T02:39:29.132Z,99.90
2018-08-04T02:41:57.846Z,99.90
2018-08-04T02:44:26.630Z,99.90
2018-08-04T02:46:55.382Z,99.90
2018-08-04T02:49:24.264Z,99.90
2018-08-04T02:51:52.983Z,99.90
2018-08-04T02:54:21.672Z,99.90
2018-08-04T02:56:50.464Z,99.90
2018-08-04T02:59:19.329Z,99.90
2018-08-04T03:01:48.058Z,99.90
2018-08-04T03:04:16.824Z,99.90
2018-08-04T03:06:45.531Z,99.90
2018-08-04T03:09:14.423Z,99.90
2018-08-04T03:11:43.385Z,99.90
2018-08-04T03:14:12.269Z,99.90
2018-08-04T03:16:40.978Z,99.90
2018-08-04T03:19:09.653Z,99.90
2018-08-04T03:21:38.410Z,99.90
2018-08-04T03:24:07.172Z,99.90
2018-08-04T03:26:35.995Z,99.90
2018-08-04T03:29:04.798Z,99.90
2018-08-04T03:31:33.580Z,99.90
2018-08-04T03:34:02.282Z,99.90
2018-08-04T03:36:31.084Z,99.90
2018-08-04T03:38:59.962Z,99.90
2018-08-04T03:41:28.693Z,99.90
2018-08-04T03:43:57.422Z,99.90
2018-08-04T03:46:26.129Z,99.90
2018-08-04T03:48:54.890Z,99.90
2018-08-04T03:51:23.633Z,99.90
2018-08-04T03:53:52.542Z,99.90
2018-08-04T03:56:21.525Z,99.90
2018-08-04T03:58:50.341Z,99.90
2018-08-04T04:03:47.483Z,99.90
2018-08-04T04:06:16.277Z,99.90
2018-08-04T04:08:45.073Z,99.90
2018-08-04T04:11:13.772Z,99.90
2018-08-04T04:13:42.489Z,99.90
2018-08-04T04:16:11.291Z,99.90
2018-08-04T04:18:40.040Z,99.90
2018-08-04T04:21:08.768Z,99.90
2018-08-04T04:23:37.493Z,99.90
2018-08-04T04:26:06.281Z,99.90
2018-08-04T04:28:35.026Z,99.90
2018-08-04T04:31:03.736Z,99.90
2018-08-04T04:33:32.438Z,99.90
2018-08-04T04:36:01.207Z,99.90
2018-08-04T04:38:29.996Z,99.90
2018-08-04T04:40:58.823Z,99.90
2018-08-04T04:43:27.544Z,99.90
2018-08-04T04:45:56.388Z,99.90
2018-08-04T04:48:25.247Z,99.90
2018-08-04T04:50:54.026Z,99.90
2018-08-04T04:53:22.732Z,99.90
2018-08-04T04:55:51.509Z,99.90
2018-08-04T04:58:20.298Z,99.90
2018-08-04T05:00:49.082Z,99.90
2018-08-04T05:03:17.860Z,99.90
2018-08-04T05:05:46.574Z,99.90
2018-08-04T05:08:15.324Z,99.90
2018-08-04T05:10:44.088Z,99.90
2018-08-04T05:13:12.823Z,99.90
2018-08-04T05:15:41.628Z,99.90
2018-08-04T05:18:10.410Z,99.90
2018-08-04T05:20:39.167Z,99.90
2018-08-04T05:23:08.007Z,99.90
2018-08-04T05:25:36.758Z,99.90
2018-08-04T05:28:05.585Z,99.90
2018-08-04T05:30:34.280Z,99.90
2018-08-04T05:33:03.114Z,99.90
2018-08-04T05:35:31.914Z,99.90
2018-08-04T05:38:00.700Z,99.90
2018-08-04T05:40:29.473Z,99.90
2018-08-04T05:45:26.648Z,99.90
2018-08-04T05:47:55.469Z,99.90
2018-08-04T05:50:24.230Z,99.90
2018-08-04T05:52:53.045Z,99.90
2018-08-04T05:55:21.765Z,99.90
2018-08-04T05:57:50.659Z,99.90
2018-08-04T06:00:19.406Z,99.90
2018-08-04T06:02:48.188Z,99.90
2018-08-04T06:05:17.021Z,99.90
2018-08-04T06:07:45.800Z,99.90
2018-08-04T06:10:14.550Z,99.90
2018-08-04T06:12:43.338Z,99.90
2018-08-04T06:15:12.052Z,99.90
2018-08-04T06:17:47.316Z,99.90
2018-08-04T06:20:16.004Z,99.90
2018-08-04T06:22:44.771Z,99.90
2018-08-04T06:25:13.517Z,99.90
2018-08-04T06:27:42.309Z,99.90
2018-08-04T06:30:12.150Z,99.90
2018-08-04T06:32:42.061Z,99.90
2018-08-04T06:35:11.393Z,99.90
2018-08-04T06:37:40.142Z,99.90
2018-08-04T06:40:09.177Z,99.90
2018-08-04T06:42:38.011Z,99.90
2018-08-04T06:45:06.913Z,99.80
2018-08-04T06:47:35.741Z,99.60
2018-08-04T06:50:04.632Z,99.60
2018-08-04T06:52:33.312Z,99.40
2018-08-04T06:55:02.054Z,99.40
2018-08-04T06:57:30.813Z,99.40
2018-08-04T06:59:59.533Z,99.30
2018-08-04T07:02:28.320Z,99.70
2018-08-04T07:04:57.070Z,99.00
2018-08-04T07:07:25.808Z,98.90
2018-08-04T07:09:54.530Z,98.00
2018-08-04T07:12:23.296Z,98.10
2018-08-04T07:14:52.050Z,97.80
2018-08-04T07:17:20.799Z,98.30
2018-08-04T07:19:49.547Z,98.20
2018-08-04T07:22:18.418Z,97.80
2018-08-04T07:24:47.144Z,97.30
2018-08-04T07:27:15.889Z,97.60
2018-08-04T07:29:44.552Z,96.70
2018-08-04T07:32:13.327Z,96.80
2018-08-04T07:34:42.120Z,96.30
2018-08-04T07:37:10.960Z,96.60
2018-08-04T07:39:39.907Z,96.10
2018-08-04T07:42:08.736Z,95.80
2018-08-04T07:47:06.046Z,95.70
2018-08-04T07:49:34.767Z,95.20
2018-08-04T07:52:03.628Z,95.00
2018-08-04T07:54:32.578Z,95.40
2018-08-04T07:59:29.822Z,94.90
2018-08-04T08:01:58.496Z,94.30
2018-08-04T08:04:27.240Z,93.30
2018-08-04T08:06:55.927Z,93.80
2018-08-04T08:09:24.822Z,91.70
2018-08-04T08:11:53.610Z,91.60
2018-08-04T08:14:22.369Z,91.00
2018-08-04T08:16:51.470Z,91.00
2018-08-04T08:19:20.957Z,90.80
2018-08-04T08:21:50.741Z,90.00
2018-08-04T08:24:19.598Z,90.30
2018-08-04T08:29:17.477Z,90.20
2018-08-04T08:31:46.404Z,88.40
2018-08-04T08:34:15.155Z,89.40
2018-08-04T08:36:43.977Z,89.40
2018-08-04T08:39:12.757Z,88.10
2018-08-04T08:41:41.786Z,90.00
2018-08-04T08:46:39.189Z,84.60
2018-08-04T08:49:07.893Z,80.20
2018-08-04T08:51:36.705Z,82.70
2018-08-04T08:54:06.170Z,81.20
2018-08-04T08:56:34.932Z,79.90
2018-08-04T08:59:03.709Z,79.00
2018-08-04T09:01:32.498Z,77.90
2018-08-04T09:04:01.414Z,77.70
2018-08-04T09:06:30.303Z,76.10
2018-08-04T09:08:58.994Z,73.00
2018-08-04T09:11:27.876Z,71.60
2018-08-04T09:13:56.614Z,73.00
2018-08-04T09:16:25.527Z,72.00
2018-08-04T09:18:54.704Z,73.20
2018-08-04T09:21:23.553Z,70.80
2018-08-04T09:23:52.429Z,70.10
2018-08-04T09:26:21.339Z,70.20
2018-08-04T09:28:50.074Z,69.30
2018-08-04T09:31:18.818Z,68.60
2018-08-04T09:33:47.753Z,67.30
2018-08-04T09:36:16.491Z,67.50
2018-08-04T09:38:45.452Z,65.80
2018-08-04T09:41:14.670Z,67.10
2018-08-04T09:43:43.855Z,65.20
2018-08-04T09:46:12.775Z,64.30
2018-08-04T09:48:41.579Z,64.80
2018-08-04T09:51:10.405Z,64.10
2018-08-04T09:53:39.163Z,62.90
2018-08-04T09:56:08.256Z,63.10
2018-08-04T09:58:37.064Z,58.50
2018-08-04T10:01:11.465Z,57.90
2018-08-04T10:03:40.141Z,59.00
2018-08-04T10:06:08.938Z,59.40
2018-08-04T10:08:37.720Z,59.20
2018-08-04T10:11:06.671Z,59.30
2018-08-04T10:13:35.570Z,55.10
2018-08-04T10:16:04.451Z,52.80
2018-08-04T10:18:33.208Z,56.70
2018-08-04T10:21:01.961Z,50.50
2018-08-04T10:23:30.665Z,52.70
2018-08-04T10:25:59.407Z,48.60
2018-08-04T10:28:28.124Z,49.50
2018-08-04T10:30:56.871Z,49.00
2018-08-04T10:33:26.043Z,46.70
2018-08-04T10:35:55.697Z,45.20
2018-08-04T10:38:24.550Z,47.90
2018-08-04T10:40:53.811Z,46.40
2018-08-04T10:43:23.301Z,48.30
2018-08-04T10:45:52.297Z,48.80
2018-08-04T10:48:21.064Z,46.50
2018-08-04T10:50:50.213Z,45.40
2018-08-04T10:53:19.241Z,47.50
2018-08-04T10:55:48.377Z,44.70
2018-08-04T10:58:17.518Z,43.50
2018-08-04T11:00:46.549Z,40.70
2018-08-04T11:03:15.855Z,41.00
2018-08-04T11:05:44.718Z,39.80
2018-08-04T11:08:13.739Z,39.50
2018-08-04T11:10:42.859Z,40.50
2018-08-04T11:15:40.269Z,38.50
2018-08-04T11:18:09.295Z,39.20
2018-08-04T11:20:38.236Z,36.10
2018-08-04T11:23:07.100Z,35.70
2018-08-04T11:25:35.946Z,36.70
2018-08-04T11:28:04.705Z,36.90
2018-08-04T11:30:33.422Z,36.00
2018-08-04T11:33:02.167Z,36.20
2018-08-04T11:35:31.021Z,34.00
2018-08-04T11:37:59.733Z,34.80
2018-08-04T11:40:28.522Z,35.60
2018-08-04T11:42:57.217Z,31.80
2018-08-04T11:45:26.090Z,33.50
2018-08-04T11:47:54.750Z,32.90
2018-08-04T11:50:23.481Z,31.00
2018-08-04T11:52:52.213Z,32.10
2018-08-04T11:55:20.947Z,34.20
2018-08-04T11:57:49.620Z,34.60
2018-08-04T12:00:18.324Z,34.80
2018-08-04T12:02:47.125Z,34.60
2018-08-04T12:05:15.873Z,34.60
2018-08-04T12:07:44.628Z,34.90
2018-08-04T12:10:13.631Z,35.20
2018-08-04T12:12:42.282Z,33.60
2018-08-04T12:15:11.053Z,33.30
2018-08-04T12:17:39.811Z,33.50
2018-08-04T12:22:37.176Z,34.80
2018-08-04T12:27:34.640Z,33.70
2018-08-04T12:30:03.393Z,33.80
2018-08-04T12:32:32.177Z,33.20
2018-08-04T12:35:01.091Z,34.60
2018-08-04T12:37:29.921Z,34.40
2018-08-04T12:39:58.662Z,34.40
2018-08-04T12:42:27.422Z,33.80
2018-08-04T12:44:56.491Z,33.40
2018-08-04T12:47:25.173Z,34.40
2018-08-04T12:49:53.880Z,36.80
2018-08-04T12:52:22.874Z,36.20
2018-08-04T12:54:52.157Z,36.20
2018-08-04T12:57:21.397Z,38.20
2018-08-04T12:59:50.117Z,37.90
2018-08-04T13:02:18.847Z,38.00
2018-08-04T13:04:47.562Z,39.30
2018-08-04T13:07:16.336Z,39.10
2018-08-04T13:09:45.082Z,37.00
2018-08-04T13:12:13.950Z,36.60
2018-08-04T13:14:42.842Z,36.50
2018-08-04T13:17:11.576Z,35.40
2018-08-04T13:19:40.286Z,34.70
2018-08-04T13:22:09.062Z,35.10
2018-08-04T13:24:37.792Z,36.40
2018-08-04T13:27:06.561Z,35.70
2018-08-04T13:29:35.275Z,36.40
2018-08-04T13:32:04.333Z,33.20
2018-08-04T13:34:33.123Z,34.40
2018-08-04T13:37:02.186Z,35.50
2018-08-04T13:39:31.191Z,32.50
2018-08-04T13:41:59.973Z,33.00
2018-08-04T13:44:28.725Z,33.10
2018-08-04T13:46:57.526Z,30.20
2018-08-04T13:49:26.309Z,32.80
2018-08-04T13:51:55.105Z,31.50
2018-08-04T13:54:23.904Z,32.40
2018-08-04T13:56:52.644Z,30.80
2018-08-04T13:59:21.332Z,28.60
2018-08-04T14:01:50.153Z,30.10
2018-08-04T14:04:18.828Z,30.10
2018-08-04T14:06:47.539Z,32.30
2018-08-04T14:09:16.297Z,29.80
2018-08-04T14:11:45.252Z,30.20
2018-08-04T14:14:13.972Z,31.00
2018-08-04T14:16:42.732Z,30.70
2018-08-04T14:19:11.445Z,29.40
2018-08-04T14:21:40.162Z,29.60
2018-08-04T14:24:08.871Z,32.20
2018-08-04T14:29:06.063Z,31.50
2018-08-04T14:31:34.781Z,33.90
2018-08-04T14:34:03.513Z,34.20
2018-08-04T14:36:32.312Z,34.00
2018-08-04T14:39:01.069Z,31.60
2018-08-04T14:41:29.765Z,33.20
2018-08-04T14:43:59.375Z,33.20
2018-08-04T14:46:28.348Z,33.80
2018-08-04T14:48:57.062Z,34.30
2018-08-04T14:53:54.418Z,33.90
2018-08-04T14:56:23.157Z,32.50
2018-08-04T14:58:53.213Z,33.40
2018-08-04T15:01:22.352Z,33.90
2018-08-04T15:03:51.241Z,32.80
2018-08-04T15:06:20.564Z,33.10
2018-08-04T15:08:49.345Z,35.30
2018-08-04T15:11:18.142Z,34.70
2018-08-04T15:13:46.996Z,34.20
2018-08-04T15:16:15.868Z,33.70
2018-08-04T15:18:44.996Z,33.90
2018-08-04T15:21:14.000Z,33.70
2018-08-04T15:23:42.897Z,34.10
2018-08-04T15:26:11.932Z,34.00
2018-08-04T15:28:40.870Z,34.70
2018-08-04T15:31:09.730Z,35.30
2018-08-04T15:33:38.446Z,34.60
2018-08-04T15:36:07.614Z,33.60
2018-08-04T15:38:36.705Z,34.40
2018-08-04T15:41:05.876Z,33.60
2018-08-04T15:43:34.977Z,34.30
2018-08-04T15:46:03.799Z,33.50
2018-08-04T15:48:32.587Z,32.90
2018-08-04T15:51:01.378Z,33.80
2018-08-04T15:53:30.133Z,33.60
2018-08-04T15:55:59.149Z,33.70
2018-08-04T15:58:28.143Z,34.10
2018-08-04T16:00:57.197Z,33.70
2018-08-04T16:03:26.313Z,34.30
2018-08-04T16:05:55.452Z,34.80
2018-08-04T16:08:24.350Z,34.50
2018-08-04T16:10:53.148Z,35.20
2018-08-04T16:13:21.996Z,34.80
2018-08-04T16:15:50.747Z,35.30
2018-08-04T16:18:19.478Z,36.40
2018-08-04T16:20:48.144Z,34.90
2018-08-04T16:23:16.900Z,35.20
2018-08-04T16:25:45.672Z,35.20
2018-08-04T16:28:14.516Z,36.50
2018-08-04T16:30:43.204Z,36.50
2018-08-04T16:33:12.331Z,37.30
2018-08-04T16:35:41.039Z,35.50
2018-08-04T16:38:09.977Z,35.50
2018-08-04T16:40:38.731Z,36.30
2018-08-04T16:43:07.506Z,36.60
2018-08-04T16:48:04.657Z,33.80
2018-08-04T16:50:33.393Z,33.80
2018-08-04T16:53:02.144Z,34.60
2018-08-04T16:55:31.103Z,35.80
2018-08-04T16:57:59.861Z,35.90
2018-08-04T17:00:28.653Z,36.50
2018-08-04T17:02:57.445Z,37.60
2018-08-04T17:05:26.175Z,36.60
2018-08-04T17:07:54.869Z,37.90
2018-08-04T17:10:23.674Z,37.20
2018-08-04T17:12:52.403Z,37.20
2018-08-04T17:15:21.215Z,37.00
2018-08-04T17:17:50.090Z,37.50
2018-08-04T17:20:18.868Z,37.20
2018-08-04T17:22:47.680Z,38.00
2018-08-04T17:25:16.389Z,38.80
2018-08-04T17:27:45.157Z,37.40
2018-08-04T17:30:14.048Z,38.30
2018-08-04T17:32:42.777Z,37.90
2018-08-04T17:35:12.040Z,38.00
2018-08-04T17:37:40.937Z,39.20
2018-08-04T17:40:09.712Z,38.20
2018-08-04T17:42:38.502Z,38.30
2018-08-04T17:45:07.458Z,38.20
2018-08-04T17:47:36.288Z,38.20
2018-08-04T17:50:05.121Z,38.30
2018-08-04T17:52:33.863Z,37.60
2018-08-04T17:55:03.086Z,37.70
2018-08-04T17:57:31.774Z,37.70
2018-08-04T18:00:00.555Z,37.90
2018-08-04T18:02:29.289Z,38.00
2018-08-04T18:04:58.005Z,38.20
2018-08-04T18:07:27.180Z,38.00
2018-08-04T18:09:56.057Z,38.30
2018-08-04T18:12:24.770Z,38.20
2018-08-04T18:14:53.672Z,38.50
2018-08-04T18:17:22.620Z,39.90
2018-08-04T18:19:51.306Z,39.80
2018-08-04T18:22:20.096Z,40.00
2018-08-04T18:24:48.971Z,39.30
2018-08-04T18:27:18.056Z,39.50
2018-08-04T18:29:47.056Z,40.30
2018-08-04T18:32:15.833Z,40.50
2018-08-04T18:34:45.188Z,40.80
2018-08-04T18:37:14.483Z,41.00
2018-08-04T18:39:43.397Z,40.80
2018-08-04T18:42:12.453Z,41.70
2018-08-04T18:44:41.523Z,42.40
2018-08-04T18:47:10.692Z,42.60
2018-08-04T18:49:39.759Z,43.80
2018-08-04T18:52:08.777Z,44.90
2018-08-04T18:54:37.557Z,45.50
2018-08-04T18:57:06.743Z,46.20
2018-08-04T18:59:36.334Z,46.60
2018-08-04T19:02:05.295Z,47.90
2018-08-04T19:04:34.278Z,48.90
2018-08-04T19:07:03.106Z,49.90
2018-08-04T19:09:32.403Z,51.00
2018-08-04T19:12:01.124Z,51.70
2018-08-04T19:14:30.079Z,51.40
2018-08-04T19:16:58.863Z,51.60
2018-08-04T19:19:27.689Z,52.50
2018-08-04T19:21:56.464Z,52.70
2018-08-04T19:24:25.403Z,53.70
2018-08-04T19:26:54.372Z,54.00
2018-08-04T19:29:23.161Z,54.30
2018-08-04T19:34:20.623Z,55.00
2018-08-04T19:36:49.515Z,55.30
2018-08-04T19:39:18.234Z,55.90
2018-08-04T19:41:47.003Z,56.30
2018-08-04T19:44:16.072Z,56.80
2018-08-04T19:46:45.272Z,57.50
2018-08-04T19:49:14.175Z,57.90
2018-08-04T19:51:42.913Z,58.50
2018-08-04T19:54:11.748Z,59.20
2018-08-04T19:56:40.454Z,59.80
2018-08-04T19:59:09.394Z,60.10
2018-08-04T20:01:38.635Z,60.80
2018-08-04T20:04:12.816Z,61.60
2018-08-04T20:06:41.565Z,62.10
2018-08-04T20:09:11.609Z,63.00
2018-08-04T20:11:40.959Z,63.80
2018-08-04T20:14:09.758Z,64.20
2018-08-04T20:16:38.670Z,65.10
2018-08-04T20:19:07.505Z,64.90
2018-08-04T20:21:36.322Z,66.10
2018-08-04T20:24:05.160Z,66.10
2018-08-04T20:26:33.904Z,66.20
2018-08-04T20:31:31.176Z,67.10
2018-08-04T20:34:00.333Z,68.80
2018-08-04T20:36:29.342Z,70.10
2018-08-04T20:38:58.120Z,70.20
2018-08-04T20:41:27.057Z,69.30
2018-08-04T20:43:55.811Z,69.80
2018-08-04T20:46:24.664Z,70.50
2018-08-04T20:48:53.429Z,71.40
2018-08-04T20:51:22.187Z,71.70
2018-08-04T20:53:51.425Z,72.50
2018-08-04T20:56:20.379Z,72.10
2018-08-04T20:58:49.485Z,72.70
2018-08-04T21:01:29.278Z,72.20
2018-08-04T21:03:58.071Z,73.00
2018-08-04T21:06:27.012Z,73.60
2018-08-04T21:08:55.987Z,74.00
2018-08-04T21:11:25.053Z,73.30
2018-08-04T21:13:53.748Z,74.30
2018-08-04T21:16:22.666Z,74.80
2018-08-04T21:18:51.474Z,75.90
2018-08-04T21:21:20.348Z,75.10
2018-08-04T21:23:49.766Z,75.30
2018-08-04T21:26:18.867Z,76.80
2018-08-04T21:28:47.714Z,74.10
2018-08-04T21:31:16.419Z,74.20
2018-08-04T21:33:45.240Z,75.30
2018-08-04T21:36:14.063Z,76.50
2018-08-04T21:38:42.911Z,77.30
2018-08-04T21:43:40.084Z,77.90
2018-08-04T21:46:09.015Z,78.40
2018-08-04T21:48:37.970Z,78.70
2018-08-04T21:51:06.945Z,78.70
2018-08-04T21:53:35.875Z,79.10
2018-08-04T21:56:05.013Z,79.00
2018-08-04T21:58:33.800Z,80.50
2018-08-04T22:01:07.869Z,81.20
2018-08-04T22:03:36.668Z,81.90
2018-08-04T22:06:05.880Z,82.90
2018-08-04T22:08:45.894Z,83.80
2018-08-04T22:11:14.721Z,83.30
2018-08-04T22:13:43.615Z,84.00
2018-08-04T22:16:12.610Z,85.10
2018-08-04T22:18:41.789Z,85.50
2018-08-04T22:21:10.695Z,86.20
2018-08-04T22:23:39.616Z,87.00
2018-08-04T22:26:08.698Z,87.00
2018-08-04T22:28:37.897Z,87.20
2018-08-04T22:31:06.954Z,87.10
2018-08-04T22:33:35.873Z,87.60
2018-08-04T22:36:04.683Z,87.40
2018-08-04T22:38:33.436Z,87.40
2018-08-04T22:41:02.771Z,88.00
2018-08-04T22:43:31.612Z,88.00
2018-08-04T22:46:02.572Z,88.50
2018-08-04T22:48:31.564Z,89.10
2018-08-04T22:51:00.533Z,89.10
2018-08-04T22:53:29.509Z,89.00
2018-08-04T22:55:58.257Z,90.00
2018-08-04T22:58:27.063Z,90.00
2018-08-04T23:00:56.045Z,90.30
2018-08-04T23:03:24.962Z,90.40
2018-08-04T23:05:54.263Z,90.20
2018-08-04T23:08:23.311Z,90.60
2018-08-04T23:10:52.499Z,91.00
2018-08-04T23:13:21.499Z,91.00
2018-08-04T23:15:50.629Z,91.20
2018-08-04T23:18:19.574Z,91.30
2018-08-04T23:20:48.448Z,91.50
2018-08-04T23:23:17.580Z,91.90
2018-08-04T23:25:46.467Z,92.10
2018-08-04T23:28:15.694Z,92.30
2018-08-04T23:30:44.493Z,92.50
2018-08-04T23:33:13.179Z,92.90
2018-08-04T23:35:42.077Z,93.40
2018-08-04T23:38:11.192Z,93.40
2018-08-04T23:40:39.905Z,93.60
2018-08-04T23:43:08.797Z,94.10
2018-08-04T23:45:37.705Z,94.20
2018-08-04T23:48:06.525Z,94.40
2018-08-04T23:50:35.620Z,94.90
2018-08-04T23:53:04.481Z,95.10
2018-08-04T23:55:33.230Z,95.20
2018-08-04T23:58:02.049Z,95.30
